Time;durP1;ratioP1;P1;durP2;ratioP2;P2;SDS_P1;SDS_P2;PMS_P1;PMS_P2;Temp;Humidity;BMP_temperature;BMP_pressure;BME280_temperature;BME280_humidity;BME280_pressure;Samples;Min_cycle;Max_cycle;Signal;HPM_P1;HPM_P2
2022/05/16 00:00:39;;;;;;;5.03;3.67;;;14.50;99.90;;;15.45;67.99;97933.69;5202532;28;20201;-56
2022/05/16 00:03:12;;;;;;;3.50;3.22;;;14.60;99.90;;;15.38;67.91;97926.56;5201037;28;20201;-59
2022/05/16 00:05:46;;;;;;;3.70;3.40;;;14.50;99.90;;;15.34;68.28;97938.44;5200746;28;20258;-54
2022/05/16 00:08:20;;;;;;;4.15;3.83;;;14.50;99.90;;;15.31;67.51;97934.03;5199335;28;20240;-51
2022/05/16 00:10:53;;;;;;;4.63;3.65;;;14.50;99.90;;;15.07;67.25;97922.75;5197412;28;20221;-63
2022/05/16 00:13:26;;;;;;;3.88;3.50;;;14.20;99.90;;;15.09;68.35;97922.00;5202635;28;20211;-59
2022/05/16 00:16:00;;;;;;;3.63;3.33;;;14.20;99.90;;;15.02;67.72;97916.53;5200942;28;20266;-55
2022/05/16 00:18:33;;;;;;;4.20;3.70;;;14.20;99.90;;;15.02;67.20;97908.81;5201262;28;20297;-55
2022/05/16 00:21:06;;;;;;;3.60;3.30;;;14.20;99.90;;;15.00;67.74;97910.47;5202219;28;20689;-57
2022/05/16 00:23:41;;;;;;;4.65;3.42;;;14.20;99.90;;;14.97;67.18;97913.78;5201518;28;20292;-53
2022/05/16 00:26:14;;;;;;;3.67;3.38;;;14.10;99.90;;;14.94;67.06;97900.81;5200875;28;20330;-52
2022/05/16 00:28:47;;;;;;;4.35;3.58;;;14.10;99.90;;;14.85;65.46;97901.31;5202159;28;20441;-55
2022/05/16 00:31:20;;;;;;;3.72;3.42;;;14.00;99.90;;;14.70;65.77;97895.50;5202678;28;20293;-58
2022/05/16 00:33:53;;;;;;;3.80;3.60;;;13.80;99.90;;;14.69;66.56;97892.88;5203615;28;20293;-51
2022/05/16 00:36:26;;;;;;;4.25;3.90;;;13.80;99.90;;;14.67;66.99;97890.25;5204752;28;20269;-52
2022/05/16 00:39:01;;;;;;;3.67;3.40;;;13.90;99.90;;;14.66;66.48;97883.34;5199004;28;20688;-54
2022/05/16 00:41:34;;;;;;;3.88;3.50;;;13.80;99.90;;;14.66;66.06;97885.91;5197606;28;20237;-53
2022/05/16 00:44:07;;;;;;;4.20;3.90;;;13.80;99.90;;;14.62;67.35;97891.75;5202802;28;20279;-56
2022/05/16 00:46:40;;;;;;;4.05;3.75;;;13.80;99.90;;;14.58;67.59;97882.16;5201912;28;20238;-55
2022/05/16 00:49:20;;;;;;;4.32;3.90;;;13.80;99.90;;;14.64;67.38;97879.81;5198500;28;20309;-54
2022/05/16 00:52:00;;;;;;;4.22;3.83;;;13.90;99.90;;;14.66;67.29;97878.19;5202416;28;20243;-61
2022/05/16 00:54:40;;;;;;;4.07;3.70;;;13.90;99.90;;;14.69;66.33;97872.31;5196697;28;20293;-57
2022/05/16 00:57:18;;;;;;;4.35;3.85;;;13.90;99.90;;;14.73;66.59;97867.34;5199847;28;20222;-60
2022/05/16 00:59:58;;;;;;;3.80;3.53;;;14.00;99.90;;;14.76;66.26;97858.88;5202624;28;20284;-56
2022/05/16 01:05:24;;;;;;;3.80;3.45;;;13.90;99.90;;;14.68;67.91;97856.00;5202248;28;20638;-57
2022/05/16 01:08:02;;;;;;;4.85;3.88;;;14.00;99.90;;;14.69;66.57;97856.88;5195468;28;20260;-55
2022/05/16 01:10:37;;;;;;;3.70;3.50;;;13.90;99.90;;;14.69;66.29;97852.59;5202775;28;20657;-56
2022/05/16 01:13:11;;;;;;;3.75;3.47;;;13.90;99.90;;;14.66;66.55;97844.75;5199204;28;20194;-59
2022/05/16 01:15:47;;;;;;;4.20;3.90;;;13.90;99.90;;;14.63;67.39;97852.34;5204369;28;20312;-55
2022/05/16 01:18:24;;;;;;;4.28;3.83;;;13.90;99.90;;;14.60;66.70;97852.22;5208563;28;20205;-56
2022/05/16 01:21:19;;;;;;;3.97;3.70;;;13.80;99.90;;;14.52;67.48;97848.47;5209687;28;20204;-58
2022/05/16 01:23:59;;;;;;;4.30;3.90;;;13.70;99.90;;;14.57;66.76;97852.09;5203183;28;20210;-57
2022/05/16 01:26:34;;;;;;;4.93;4.53;;;13.80;99.90;;;14.64;69.03;97849.81;5205078;28;20295;-54
2022/05/16 01:29:09;;;;;;;4.13;3.83;;;13.80;99.90;;;14.61;70.45;97853.97;5203986;28;20198;-59
2022/05/16 01:31:43;;;;;;;3.95;3.60;;;13.90;99.90;;;14.68;70.07;97863.72;5207415;28;20556;-55
2022/05/16 01:34:17;;;;;;;4.15;3.80;;;14.00;99.90;;;14.76;70.36;97858.88;5205262;28;20658;-61
2022/05/16 01:36:50;;;;;;;4.55;4.15;;;14.00;99.90;;;14.78;69.73;97846.94;5205344;28;20232;-59
2022/05/16 01:39:24;;;;;;;4.32;3.92;;;14.00;99.90;;;14.78;69.54;97840.09;5206113;28;20198;-54
2022/05/16 01:41:57;;;;;;;4.22;3.83;;;14.00;99.90;;;14.81;70.80;97835.06;5206484;28;20300;-58
2022/05/16 01:44:31;;;;;;;4.32;3.92;;;14.10;99.90;;;14.91;69.76;97838.91;5200644;28;20416;-57
2022/05/16 01:47:04;;;;;;;5.30;4.80;;;14.10;99.90;;;14.92;70.32;97837.22;5206338;28;20245;-54
2022/05/16 01:49:37;;;;;;;4.57;4.10;;;14.20;99.90;;;14.93;69.60;97842.41;5204516;28;20241;-56
2022/05/16 01:52:10;;;;;;;4.22;3.92;;;14.20;99.90;;;14.73;67.60;97848.44;5210230;28;20256;-51
2022/05/16 01:54:45;;;;;;;4.65;4.25;;;13.90;99.90;;;14.82;68.81;97860.00;5199535;28;20275;-56
2022/05/16 01:57:18;;;;;;;4.43;4.13;;;14.00;99.90;;;14.83;69.47;97866.91;5205828;28;20237;-55
2022/05/16 01:59:51;;;;;;;4.30;3.90;;;14.00;99.90;;;14.72;69.20;97863.00;5203526;28;20194;-52
2022/05/16 02:02:24;;;;;;;4.35;4.05;;;13.80;99.90;;;14.71;71.24;97870.66;5207052;28;20315;-58
2022/05/16 02:04:57;;;;;;;4.80;4.13;;;13.80;99.90;;;14.63;71.17;97862.66;5203060;28;20194;-55
2022/05/16 02:07:30;;;;;;;4.60;4.20;;;13.80;99.90;;;14.64;70.07;97865.25;5208089;28;20232;-57
2022/05/16 02:10:06;;;;;;;4.43;4.03;;;13.80;99.90;;;14.57;70.44;97857.25;5204059;28;20291;-56
2022/05/16 02:12:40;;;;;;;4.60;4.20;;;13.80;99.90;;;14.58;71.52;97857.28;5205271;28;20206;-54
2022/05/16 02:15:16;;;;;;;4.55;3.90;;;13.80;99.90;;;14.58;70.75;97851.28;5199865;28;20233;-58
2022/05/16 02:17:51;;;;;;;4.50;4.10;;;13.80;99.90;;;14.57;70.28;97862.41;5203493;28;20225;-57
2022/05/16 02:20:25;;;;;;;5.35;4.40;;;13.80;99.90;;;14.66;71.36;97862.75;5211808;28;20229;-52
2022/05/16 02:25:50;;;;;;;4.25;3.95;;;13.80;99.90;;;14.64;71.52;97854.97;5202174;28;20605;-52
2022/05/16 02:28:24;;;;;;;4.28;3.97;;;13.80;99.90;;;14.56;71.55;97847.75;5206044;28;20615;-55
2022/05/16 02:30:58;;;;;;;4.25;3.95;;;13.70;99.90;;;14.50;71.76;97852.63;5204995;28;20229;-62
2022/05/16 02:33:31;;;;;;;4.20;3.80;;;13.50;99.90;;;14.42;72.75;97837.75;5204128;28;20197;-55
2022/05/16 02:36:05;;;;;;;5.03;4.63;;;13.50;99.90;;;14.39;72.27;97832.50;5207173;28;20681;-53
2022/05/16 02:38:38;;;;;;;4.43;4.05;;;13.50;99.90;;;14.34;72.70;97839.13;5205168;28;20632;-54
2022/05/16 02:41:12;;;;;;;4.20;3.90;;;13.50;99.90;;;14.21;71.36;97829.13;5201183;28;20595;-56
2022/05/16 02:43:46;;;;;;;4.55;3.95;;;13.40;99.90;;;14.19;71.98;97833.31;5201845;28;20669;-52
2022/05/16 02:46:19;;;;;;;4.75;4.40;;;13.40;99.90;;;14.22;71.63;97833.44;5204165;28;20705;-54
2022/05/16 02:48:52;;;;;;;4.63;4.25;;;13.40;99.90;;;14.13;71.82;97838.22;5208468;28;20653;-52
2022/05/16 02:51:26;;;;;;;4.90;4.50;;;13.30;99.90;;;14.13;72.46;97839.09;5204928;28;20676;-53
2022/05/16 02:53:59;;;;;;;4.78;4.40;;;13.30;99.90;;;14.14;72.61;97837.41;5204768;28;20229;-60
2022/05/16 02:56:33;;;;;;;5.20;4.80;;;13.30;99.90;;;14.18;73.09;97847.00;5204984;28;20319;-55
2022/05/16 02:59:07;;;;;;;6.03;4.90;;;13.40;99.90;;;14.20;73.22;97846.25;5204414;28;20213;-53
2022/05/16 03:01:40;;;;;;;5.45;4.95;;;13.40;99.90;;;14.20;72.51;97835.97;5205812;28;20562;-55
2022/05/16 03:04:13;;;;;;;5.95;4.65;;;13.40;99.90;;;14.27;72.43;97841.38;5204472;28;20676;-54
2022/05/16 03:06:47;;;;;;;5.03;4.50;;;13.50;99.90;;;14.20;72.02;97829.97;5200719;28;20712;-57
2022/05/16 03:09:21;;;;;;;4.35;4.05;;;13.40;99.90;;;14.20;71.09;97835.09;5203497;28;20202;-56
2022/05/16 03:11:56;;;;;;;4.65;4.35;;;13.40;99.90;;;14.13;70.36;97849.38;5203157;28;20193;-63
2022/05/16 03:14:29;;;;;;;5.28;4.85;;;13.30;99.90;;;14.20;71.73;97846.25;5199237;28;20287;-53
2022/05/16 03:17:03;;;;;;;4.88;4.47;;;13.40;99.90;;;14.17;71.61;97852.97;5208631;28;20241;-55
2022/05/16 03:19:36;;;;;;;4.72;4.32;;;13.40;99.90;;;14.27;72.76;97857.66;5205836;28;20213;-52
2022/05/16 03:22:10;;;;;;;4.82;4.43;;;13.50;99.90;;;14.28;72.19;97856.88;5200048;28;20625;-56
2022/05/16 03:24:43;;;;;;;4.63;4.25;;;13.50;99.90;;;14.31;72.88;97849.28;5201767;28;20615;-53
2022/05/16 03:27:17;;;;;;;4.50;4.20;;;13.50;99.90;;;14.33;71.36;97850.22;5203170;28;20216;-54
2022/05/16 03:29:50;;;;;;;5.57;4.97;;;13.50;99.90;;;14.23;71.38;97853.22;5198530;28;20288;-54
2022/05/16 03:32:23;;;;;;;4.80;4.40;;;13.40;99.90;;;14.21;70.35;97852.28;5204209;28;20260;-54
2022/05/16 03:34:57;;;;;;;5.13;4.72;;;13.40;99.90;;;14.14;72.25;97856.28;5202447;28;20205;-54
2022/05/16 03:37:30;;;;;;;4.28;3.97;;;13.40;99.90;;;14.22;71.32;97856.59;5205217;28;20228;-55
2022/05/16 03:42:57;;;;;;;4.45;4.05;;;13.60;99.90;;;14.36;71.29;97847.78;5201820;28;20287;-55
2022/05/16 03:45:30;;;;;;;4.50;4.18;;;13.60;99.90;;;14.38;71.10;97853.00;5200002;28;20276;-55
2022/05/16 03:48:04;;;;;;;4.53;4.22;;;13.70;99.90;;;14.43;71.44;97861.78;5204234;28;20719;-59
2022/05/16 03:50:37;;;;;;;5.07;4.60;;;13.70;99.90;;;14.42;70.84;97863.47;5206214;28;20210;-53
2022/05/16 03:53:11;;;;;;;4.60;4.28;;;13.60;99.90;;;14.48;71.90;97868.00;5204877;28;20285;-51
2022/05/16 03:55:44;;;;;;;4.22;3.80;;;13.70;99.90;;;14.55;72.96;97875.19;5199854;28;20221;-58
2022/05/16 03:58:21;;;;;;;5.25;4.85;;;13.80;99.90;;;14.71;71.97;97887.00;5204701;28;20316;-63
2022/05/16 04:00:54;;;;;;;4.72;4.38;;;14.00;99.90;;;14.79;71.34;97883.06;5200324;28;20289;-58
2022/05/16 04:03:28;;;;;;;4.45;4.07;;;13.90;99.90;;;14.79;72.51;97895.91;5202694;28;20693;-58
2022/05/16 04:06:01;;;;;;;4.50;4.20;;;13.90;99.90;;;14.77;72.80;97892.38;5200303;28;20685;-58
2022/05/16 04:08:35;;;;;;;4.68;4.35;;;13.90;99.90;;;14.73;72.31;97885.34;5201635;28;20641;-58
2022/05/16 04:11:08;;;;;;;4.85;4.45;;;13.90;99.90;;;14.68;72.27;97885.97;5201252;28;20696;-58
2022/05/16 04:13:43;;;;;;;5.05;4.65;;;13.80;99.90;;;14.64;74.38;97882.41;5205102;28;20267;-57
2022/05/16 04:16:16;;;;;;;4.40;4.18;;;13.70;99.90;;;14.60;74.34;97883.97;5200986;28;20312;-55
2022/05/16 04:18:49;;;;;;;5.18;4.68;;;13.80;99.90;;;14.62;73.95;97879.78;5194429;28;20305;-58
2022/05/16 04:21:23;;;;;;;5.93;5.43;;;13.80;99.90;;;14.72;74.08;97881.03;5200768;28;20248;-58
2022/05/16 04:23:56;;;;;;;9.95;7.90;;;13.90;99.90;;;14.62;74.10;97882.34;5200848;28;20284;-58
2022/05/16 04:26:29;;;;;;;7.30;6.70;;;13.90;99.90;;;14.69;73.04;97883.47;5204649;28;20248;-57
2022/05/16 04:29:04;;;;;;;5.28;4.88;;;13.90;99.90;;;14.72;72.20;97893.00;5198576;28;20202;-58
2022/05/16 04:31:37;;;;;;;5.13;4.72;;;13.80;99.90;;;14.72;74.29;97893.00;5203156;28;20197;-58
2022/05/16 04:34:10;;;;;;;4.85;4.43;;;13.90;99.90;;;14.75;73.42;97888.88;5201798;28;20281;-58
2022/05/16 04:36:43;;;;;;;4.53;4.13;;;14.00;99.90;;;14.82;74.23;97893.47;5206763;28;20217;-59
2022/05/16 04:39:17;;;;;;;7.50;6.78;;;14.00;99.90;;;14.87;73.54;97902.22;5201356;28;20217;-59
2022/05/16 04:44:41;;;;;;;10.43;7.78;;;14.10;99.90;;;14.93;74.02;97903.28;5194975;28;20205;-58
2022/05/16 04:47:14;;;;;;;8.45;6.78;;;14.20;99.90;;;14.94;73.53;97905.06;5201093;28;20224;-58
2022/05/16 04:49:48;;;;;;;15.60;9.90;;;14.10;99.90;;;14.93;74.17;97904.16;5197698;28;20198;-59
2022/05/16 04:52:21;;;;;;;18.02;11.88;;;14.10;99.90;;;14.99;73.48;97911.25;5207628;28;20279;-56
2022/05/16 04:54:54;;;;;;;11.45;8.50;;;14.10;99.90;;;15.05;73.76;97911.50;5206154;28;20632;-57
2022/05/16 04:57:28;;;;;;;9.60;6.60;;;14.20;99.90;;;15.05;72.33;97916.66;5206460;28;20296;-56
2022/05/16 05:00:06;;;;;;;6.82;6.10;;;14.20;99.90;;;15.09;72.03;97910.84;5209961;28;20317;-52
2022/05/16 05:02:39;;;;;;;5.55;5.05;;;14.30;99.90;;;15.13;73.33;97917.84;5206965;28;20653;-56
2022/05/16 05:05:14;;;;;;;8.20;5.75;;;14.30;99.90;;;15.21;72.92;97916.47;5209632;28;20305;-52
2022/05/16 05:07:48;;;;;;;8.32;5.65;;;14.50;99.90;;;15.26;73.64;97925.25;5207541;28;20226;-59
2022/05/16 05:16:10;;;;;;;6.20;5.60;;;14.70;99.90;;;15.46;73.19;97927.75;5214632;28;20658;-53
2022/05/16 05:18:43;;;;;;;5.00;4.50;;;14.70;99.90;;;15.53;72.34;97928.00;5208169;28;20764;-55
2022/05/16 05:21:17;;;;;;;4.68;4.30;;;14.80;99.90;;;15.58;71.65;97930.78;5210191;28;20212;-54
2022/05/16 05:23:52;;;;;;;6.32;5.72;;;14.70;99.90;;;15.62;72.04;97929.19;5207735;28;20677;-54
2022/05/16 05:26:25;;;;;;;5.72;5.22;;;14.80;99.90;;;15.59;72.75;97922.22;5209593;28;20796;-54
2022/05/16 05:28:58;;;;;;;7.82;6.35;;;14.80;99.90;;;15.62;72.14;97927.47;5206624;28;20297;-56
2022/05/16 05:31:32;;;;;;;5.20;4.70;;;14.80;99.90;;;15.58;73.94;97923.06;5206806;28;20233;-53
2022/05/16 05:34:05;;;;;;;5.60;5.07;;;14.80;99.90;;;15.64;73.28;97919.81;5208591;28;20198;-51
2022/05/16 05:36:44;;;;;;;5.28;4.88;;;14.90;99.90;;;15.75;72.92;97929.75;5206978;28;20217;-55
2022/05/16 05:39:18;;;;;;;6.47;5.75;;;15.00;99.90;;;15.89;72.29;97931.97;5208219;28;20218;-54
2022/05/16 05:41:51;;;;;;;5.45;5.03;;;15.10;99.90;;;15.90;71.78;97926.88;5209487;28;20202;-53
2022/05/16 05:44:24;;;;;;;5.32;4.80;;;15.10;99.90;;;16.01;71.47;97924.69;5211312;28;20202;-55
2022/05/16 05:47:01;;;;;;;4.55;4.20;;;15.20;99.90;;;16.14;70.95;97931.19;5209389;28;20308;-52
2022/05/16 05:49:34;;;;;;;5.10;4.70;;;15.30;99.90;;;16.31;70.36;97929.19;5208646;28;20200;-54
2022/05/16 05:52:07;;;;;;;5.80;5.05;;;15.40;99.90;;;16.42;70.95;97935.59;5209752;28;20589;-54
2022/05/16 05:54:40;;;;;;;4.85;4.50;;;15.60;99.90;;;16.46;70.82;97945.22;5207247;28;20197;-56
2022/05/16 05:57:16;;;;;;;5.47;4.97;;;15.60;99.90;;;16.50;68.84;97941.03;5210712;28;20197;-58
2022/05/16 05:59:49;;;;;;;4.95;4.47;;;15.50;99.90;;;16.42;68.76;97944.25;5203218;28;20222;-56
2022/05/16 06:02:25;;;;;;;5.72;5.10;;;15.50;99.90;;;16.49;69.11;97941.88;5212298;28;20691;-58
2022/05/16 06:04:58;;;;;;;5.43;4.93;;;15.60;99.90;;;16.59;69.10;97947.41;5210325;28;20192;-58
2022/05/16 06:07:32;;;;;;;4.97;4.63;;;15.70;99.90;;;16.66;69.55;97939.06;5213543;28;20330;-57
2022/05/16 06:10:07;;;;;;;4.70;4.40;;;15.80;99.90;;;16.77;70.13;97941.13;5212850;28;20285;-57
2022/05/16 06:12:40;;;;;;;5.20;4.80;;;15.90;99.90;;;16.86;70.26;97932.03;5202671;28;20192;-56
2022/05/16 06:15:15;;;;;;;5.13;4.70;;;16.00;99.90;;;17.05;69.24;97938.69;5205658;28;20229;-57
2022/05/16 06:17:50;;;;;;;5.68;4.97;;;16.20;99.90;;;17.47;68.28;97948.63;5208542;28;20208;-56
2022/05/16 06:20:23;;;;;;;7.93;6.90;;;16.50;99.90;;;17.56;66.33;97937.69;5209489;28;20284;-58
2022/05/16 06:22:56;;;;;;;6.40;5.80;;;16.60;99.90;;;17.54;65.66;97939.34;5205245;28;20208;-60
2022/05/16 06:25:33;;;;;;;6.07;5.50;;;16.60;99.90;;;17.47;65.28;97938.28;5214861;28;20580;-58
2022/05/16 06:28:11;;;;;;;6.15;5.32;;;16.50;99.90;;;17.34;66.31;97938.75;5206802;28;20212;-59
2022/05/16 06:30:47;;;;;;;5.40;5.00;;;16.50;99.90;;;17.42;67.16;97942.41;5211606;28;20224;-59
2022/05/16 06:33:25;;;;;;;5.25;4.35;;;16.50;99.90;;;17.46;67.74;97946.88;5208630;28;20197;-57
2022/05/16 06:36:00;;;;;;;5.85;5.22;;;16.60;99.90;;;17.49;67.22;97939.22;5212472;28;20311;-57
2022/05/16 06:38:36;;;;;;;5.30;4.80;;;16.70;99.90;;;17.66;64.76;97942.31;5216908;28;20688;-58
2022/05/16 06:41:09;;;;;;;5.25;4.85;;;16.70;99.90;;;17.63;65.67;97938.78;5207086;28;20222;-57
2022/05/16 06:43:42;;;;;;;5.72;5.00;;;16.70;99.90;;;17.63;67.17;97943.94;5208478;28;20653;-60
2022/05/16 06:46:15;;;;;;;5.32;4.93;;;16.70;99.90;;;17.62;65.51;97961.13;5209019;28;20225;-57
2022/05/16 06:48:50;;;;;;;4.85;4.53;;;16.80;99.90;;;17.70;67.26;97971.72;5218602;28;20644;-58
2022/05/16 06:51:23;;;;;;;5.25;4.93;;;16.90;99.90;;;17.76;66.64;97983.13;5211201;28;20300;-60
2022/05/16 06:53:56;;;;;;;4.88;4.53;;;16.90;99.90;;;17.89;67.10;97997.34;5208601;28;20194;-60
2022/05/16 06:56:29;;;;;;;4.90;4.47;;;17.00;99.90;;;17.97;66.85;97993.28;5218657;28;20217;-60
2022/05/16 06:59:03;;;;;;;4.85;4.50;;;17.10;99.90;;;17.90;67.60;97986.16;5205889;28;20193;-61
2022/05/16 07:01:36;;;;;;;5.68;5.10;;;17.00;99.90;;;17.74;70.87;97989.97;5210366;28;20285;-61
2022/05/16 07:04:10;;;;;;;5.30;4.90;;;16.90;99.90;;;17.55;74.39;98006.59;5211491;28;20221;-61
2022/05/16 07:06:43;;;;;;;6.40;5.88;;;16.90;99.90;;;17.43;76.36;98013.97;5209547;28;20304;-61
2022/05/16 07:09:17;;;;;;;5.93;5.43;;;16.80;99.90;;;17.39;78.00;98021.56;5205700;28;20304;-60
2022/05/16 07:11:51;;;;;;;7.75;6.00;;;16.70;99.90;;;17.32;77.53;98023.94;5210494;28;20203;-59
2022/05/16 07:14:24;;;;;;;6.88;6.28;;;16.60;99.90;;;17.30;79.03;98033.34;5213524;28;20197;-58
2022/05/16 07:16:57;;;;;;;6.65;5.80;;;16.60;99.90;;;17.28;78.14;98023.78;5201092;28;20219;-59
2022/05/16 07:19:34;;;;;;;7.30;6.60;;;16.60;99.90;;;17.31;78.84;98029.06;5212663;28;20213;-59
2022/05/16 07:22:11;;;;;;;7.15;6.47;;;16.60;99.90;;;17.32;79.38;98036.88;5204339;28;20220;-59
2022/05/16 07:24:45;;;;;;;7.35;6.70;;;16.70;99.90;;;17.32;77.98;98041.16;5203594;28;20201;-59
2022/05/16 07:30:12;;;;;;;6.20;5.65;;;16.60;99.90;;;17.40;77.95;98039.72;5204748;28;20279;-59
2022/05/16 07:32:46;;;;;;;6.97;6.47;;;16.70;99.90;;;17.39;79.56;98031.91;5212647;28;20279;-60
2022/05/16 07:35:25;;;;;;;6.60;6.10;;;16.70;99.90;;;17.61;79.38;98034.34;5211175;28;20712;-60
2022/05/16 07:37:59;;;;;;;6.40;5.93;;;16.90;99.90;;;17.81;78.97;98035.03;5206566;28;20212;-59
2022/05/16 07:40:35;;;;;;;7.30;6.60;;;17.10;99.90;;;17.91;81.99;98041.34;5210484;28;20217;-60
2022/05/16 07:43:09;;;;;;;6.63;6.03;;;17.20;99.90;;;17.94;80.64;98044.94;5211121;28;20205;-60
2022/05/16 07:45:43;;;;;;;7.10;5.82;;;17.20;99.90;;;18.04;80.90;98038.31;5209809;28;20224;-60
2022/05/16 07:48:17;;;;;;;6.13;5.53;;;17.30;99.90;;;18.14;80.80;98034.28;5204695;28;20190;-60
2022/05/16 07:50:51;;;;;;;6.22;5.63;;;17.40;99.90;;;18.28;82.72;98029.53;5207354;28;20284;-60
2022/05/16 07:53:24;;;;;;;5.93;5.22;;;17.60;99.90;;;18.46;83.03;98030.94;5208368;28;20232;-60
2022/05/16 07:55:58;;;;;;;5.75;5.38;;;17.80;99.90;;;18.81;82.79;98025.03;5210535;28;20245;-59
2022/05/16 07:58:32;;;;;;;6.28;5.78;;;18.10;99.90;;;19.10;82.84;98018.03;5208951;28;20209;-59
2022/05/16 08:01:05;;;;;;;5.57;5.18;;;18.40;99.90;;;19.49;82.77;98030.25;5206885;28;20220;-59
2022/05/16 08:03:38;;;;;;;5.53;5.13;;;18.80;99.90;;;19.89;80.18;98036.44;5203395;28;20559;-58
2022/05/16 08:06:12;;;;;;;5.93;5.43;;;19.20;99.90;;;20.38;79.14;98040.09;5208632;28;20226;-58
2022/05/16 08:11:36;;;;;;;4.72;4.32;;;20.10;99.90;;;21.24;71.35;98029.69;5206266;28;20280;-60
2022/05/16 08:14:11;;;;;;;4.85;4.50;;;20.60;99.90;;;21.76;69.84;98040.09;5206465;28;20226;-58
2022/05/16 08:16:44;;;;;;;5.18;4.20;;;21.20;99.90;;;22.43;67.59;98033.31;5213986;28;20241;-58
2022/05/16 08:19:17;;;;;;;4.53;4.20;;;21.90;99.90;;;23.09;64.95;98038.41;5213021;28;20662;-58
2022/05/16 08:21:52;;;;;;;4.88;4.57;;;22.60;99.90;;;23.56;62.90;98036.25;5209459;28;20220;-59
2022/05/16 08:24:25;;;;;;;5.47;3.97;;;22.90;99.90;;;24.07;61.45;98035.81;5206580;28;20650;-59
2022/05/16 08:26:58;;;;;;;4.15;3.47;;;23.50;99.90;;;24.71;58.09;98033.53;5211280;28;20324;-59
2022/05/16 08:29:32;;;;;;;4.35;3.95;;;24.10;99.90;;;25.01;56.88;98031.84;5214778;28;20266;-56
2022/05/16 08:32:07;;;;;;;4.10;3.53;;;24.40;99.40;;;24.97;54.93;98032.72;5209944;28;20197;-56
2022/05/16 08:34:40;;;;;;;3.83;3.53;;;24.20;98.00;;;24.62;57.42;98036.97;5212587;28;20204;-56
2022/05/16 08:40:07;;;;;;;5.00;3.90;;;23.60;99.50;;;24.69;57.34;98038.72;5205609;28;20592;-56
2022/05/16 08:42:51;;;;;;;4.05;3.70;;;23.80;99.70;;;24.68;55.18;98033.50;5211560;28;20243;-55
2022/05/16 08:45:35;;;;;;;3.70;3.40;;;23.80;98.10;;;24.92;54.99;98035.31;5213422;28;20332;-55
2022/05/16 08:48:14;;;;;;;4.00;3.70;;;24.10;98.00;;;24.98;53.13;98040.59;5211705;28;20292;-59
2022/05/16 08:50:53;;;;;;;4.28;3.90;;;24.20;96.50;;;24.99;52.03;98044.94;5211300;28;20374;-58
2022/05/16 08:53:38;;;;;;;4.30;3.90;;;24.10;96.00;;;24.72;52.18;98040.47;5211438;28;20200;-58
2022/05/16 08:56:17;;;;;;;4.05;3.70;;;23.80;96.40;;;24.55;53.87;98053.47;5216221;28;20586;-58
2022/05/16 08:58:57;;;;;;;4.03;3.65;;;23.50;96.90;;;24.52;53.58;98052.59;5216672;28;20195;-59
2022/05/16 09:01:35;;;;;;;4.40;3.70;;;23.40;97.20;;;24.36;54.45;98047.28;5216586;28;20223;-57
2022/05/16 09:04:14;;;;;;;4.07;3.78;;;23.20;97.90;;;24.31;54.46;98050.72;5215318;28;20637;-55
2022/05/16 09:07:01;;;;;;;5.35;3.75;;;23.20;97.90;;;24.27;54.60;98048.09;5207786;28;20218;-59
2022/05/16 09:09:44;;;;;;;4.22;3.75;;;23.10;98.20;;;24.16;55.71;98049.78;5208870;28;20578;-58
2022/05/16 09:12:25;;;;;;;4.03;3.72;;;23.10;98.50;;;24.17;55.79;98050.66;5216413;28;20254;-59
2022/05/16 09:15:11;;;;;;;4.38;3.80;;;23.10;98.50;;;23.97;55.92;98050.50;5211673;28;20234;-58
2022/05/16 09:17:59;;;;;;;4.03;3.67;;;23.00;98.80;;;23.93;56.01;98052.25;5209989;28;20201;-58
2022/05/16 09:20:44;;;;;;;4.47;4.00;;;22.80;98.70;;;23.96;55.32;98052.25;5216357;28;20309;-59
2022/05/16 09:23:33;;;;;;;4.18;3.78;;;22.80;98.50;;;23.83;56.62;98064.34;5215763;28;20555;-58
2022/05/16 09:26:23;;;;;;;4.10;3.80;;;22.80;99.10;;;23.75;57.88;98062.53;5207383;28;20224;-58
2022/05/16 09:29:01;;;;;;;4.10;3.80;;;22.70;99.90;;;23.71;58.81;98061.63;5209234;28;20293;-58
2022/05/16 09:31:40;;;;;;;4.70;4.30;;;22.60;99.90;;;23.64;58.79;98065.03;5212766;28;20211;-57
2022/05/16 09:34:14;;;;;;;4.03;3.60;;;22.50;99.90;;;23.60;60.37;98058.91;5214377;28;20611;-55
2022/05/16 09:36:50;;;;;;;4.40;4.00;;;22.50;99.90;;;23.69;59.57;98068.53;5212661;28;20217;-56
2022/05/16 09:39:31;;;;;;;3.85;3.53;;;22.50;99.90;;;23.84;58.68;98062.63;5216893;28;20233;-56
2022/05/16 09:42:14;;;;;;;5.18;4.13;;;22.70;99.90;;;23.98;58.37;98062.69;5215304;28;20784;-57
2022/05/16 09:44:49;;;;;;;4.30;3.90;;;22.90;99.90;;;24.19;57.03;98057.63;5195672;28;20603;-56
2022/05/16 09:47:35;;;;;;;4.38;4.07;;;23.10;99.90;;;24.26;57.04;98059.41;5209915;28;20205;-55
2022/05/16 09:50:15;;;;;;;4.60;3.28;;;23.10;99.80;;;24.48;55.65;98056.94;5210279;28;20225;-57
2022/05/16 09:52:53;;;;;;;4.40;4.00;;;23.30;99.00;;;24.60;55.67;98062.22;5216019;28;20292;-57
2022/05/16 09:55:33;;;;;;;5.30;4.47;;;23.50;98.60;;;24.87;54.34;98055.38;5206017;28;20288;-55
2022/05/16 09:58:19;;;;;;;4.28;3.85;;;23.80;97.90;;;24.99;53.46;98055.41;5204565;28;20730;-58
2022/05/16 10:00:56;;;;;;;4.95;4.53;;;23.90;97.50;;;25.20;53.30;98056.34;5200650;28;20229;-58
2022/05/16 10:03:32;;;;;;;4.55;4.15;;;24.20;97.10;;;25.33;50.83;98055.53;5210922;28;20726;-58
2022/05/16 10:06:09;;;;;;;4.43;4.03;;;24.30;95.70;;;25.23;51.36;98058.97;5208750;28;20225;-57
2022/05/16 10:08:47;;;;;;;4.35;3.80;;;24.30;95.70;;;25.43;50.80;98059.88;5206829;28;20292;-56
2022/05/16 10:11:28;;;;;;;4.53;3.97;;;24.30;95.80;;;25.48;51.83;98052.91;5206270;28;20190;-58
2022/05/16 10:14:02;;;;;;;4.07;3.75;;;24.40;96.10;;;25.62;50.47;98058.16;5202512;28;20732;-56
2022/05/16 10:16:38;;;;;;;4.88;4.05;;;24.60;95.40;;;25.76;50.79;98058.16;5202513;28;20232;-57
2022/05/16 10:19:18;;;;;;;4.20;3.88;;;24.70;95.10;;;25.93;49.66;98056.44;5208659;28;20254;-58
2022/05/16 10:21:54;;;;;;;5.55;4.22;;;24.80;94.90;;;26.11;49.16;98055.53;5206679;28;20209;-56
2022/05/16 10:24:32;;;;;;;4.82;3.85;;;25.00;94.50;;;26.24;48.69;98059.00;5200506;28;20220;-57
2022/05/16 10:27:11;;;;;;;4.20;3.80;;;25.20;93.70;;;26.48;48.12;98061.56;5203729;28;20244;-59
2022/05/16 10:29:53;;;;;;;4.80;3.97;;;25.40;93.60;;;26.76;46.95;98058.88;5205705;28;20300;-58
2022/05/16 10:35:31;;;;;;;4.65;4.20;;;25.60;92.90;;;26.90;46.08;98049.19;5202534;28;20771;-57
2022/05/16 10:38:11;;;;;;;4.10;3.80;;;25.90;92.40;;;26.79;45.45;98050.13;5204223;28;20299;-56
2022/05/16 10:40:52;;;;;;;4.63;4.22;;;25.80;91.70;;;26.85;46.32;98053.59;5203479;28;20284;-59
2022/05/16 10:43:38;;;;;;;4.25;3.85;;;25.70;92.50;;;26.84;46.01;98051.84;5209832;28;20217;-57
2022/05/16 10:46:18;;;;;;;4.20;3.80;;;25.70;92.20;;;26.80;46.05;98044.84;5212089;28;20316;-59
2022/05/16 10:49:01;;;;;;;4.57;3.85;;;25.70;92.20;;;26.89;45.53;98050.06;5209685;28;20197;-59
2022/05/16 10:51:44;;;;;;;4.85;4.13;;;25.80;91.60;;;26.95;45.10;98039.53;5205291;28;20191;-60
2022/05/16 10:54:22;;;;;;;4.55;4.15;;;25.90;91.50;;;27.13;45.85;98037.69;5206131;28;21558;-59
2022/05/16 10:57:15;;;;;;;3.85;3.55;;;26.10;91.90;;;27.34;45.93;98036.72;5208139;28;20270;-56
2022/05/16 11:00:01;;;;;;;4.80;4.40;;;26.50;91.50;;;27.60;44.04;98026.88;5198915;28;20235;-58
2022/05/16 11:03:12;;;;;;;5.03;4.63;;;26.70;90.50;;;27.43;44.08;98038.41;5207312;28;20220;-59
2022/05/16 11:06:11;;;;;;;4.80;4.30;;;26.50;90.40;;;27.35;44.68;98028.81;5200593;28;20304;-59
2022/05/16 11:08:52;;;;;;;4.60;4.20;;;26.30;91.10;;;27.20;45.80;98036.81;5206682;28;20205;-57
2022/05/16 11:11:33;;;;;;;5.15;4.00;;;26.00;91.60;;;27.18;45.60;98041.19;5202671;28;20552;-58
2022/05/16 11:14:18;;;;;;;5.07;4.57;;;26.00;91.70;;;26.99;45.88;98042.16;5206903;28;20204;-55
2022/05/16 11:16:57;;;;;;;4.55;4.15;;;25.80;91.80;;;26.60;46.43;98058.06;5211352;28;20602;-59
2022/05/16 11:19:44;;;;;;;4.70;4.13;;;25.40;92.00;;;26.54;47.16;98058.09;5209740;28;20234;-57
2022/05/16 11:22:28;;;;;;;4.65;4.25;;;25.30;92.90;;;26.37;47.68;98060.72;5206222;28;20327;-57
2022/05/16 11:25:09;;;;;;;4.45;4.13;;;25.20;92.80;;;26.08;48.33;98073.03;5201702;28;20284;-59